createdAt,value
2022-08-01T00:04:32.782Z,18.00
2022-08-01T00:09:34.858Z,17.90
2022-08-01T00:14:38.016Z,17.90
2022-08-01T00:19:39.764Z,17.80
2022-08-01T00:24:41.640Z,17.80
2022-08-01T00:30:09.490Z,18.00
2022-08-01T00:35:05.520Z,17.60
2022-08-01T00:40:08.373Z,17.50
2022-08-01T00:45:10.748Z,17.60
2022-08-01T00:50:12.972Z,17.60
2022-08-01T00:55:15.402Z,17.40
2022-08-01T01:00:17.301Z,17.40
2022-08-01T01:05:19.239Z,17.40
2022-08-01T01:10:33.514Z,17.40
2022-08-01T01:15:42.935Z,17.40
2022-08-01T01:20:50.346Z,17.50
2022-08-01T01:26:18.127Z,17.10
2022-08-01T01:31:22.351Z,17.30
2022-08-01T01:36:27.070Z,17.50
2022-08-01T01:52:21.570Z,16.70
2022-08-01T01:57:24.855Z,16.70
2022-08-01T02:02:27.840Z,17.20
2022-08-01T02:07:30.293Z,17.30
2022-08-01T02:12:36.233Z,18.60
2022-08-01T02:17:42.314Z,16.80
2022-08-01T02:23:01.437Z,17.20
2022-08-01T02:28:11.337Z,18.40
2022-08-01T02:33:26.070Z,16.60
2022-08-01T02:38:32.566Z,17.00
2022-08-01T02:43:37.753Z,16.60
2022-08-01T02:53:44.142Z,16.50
2022-08-01T02:58:48.612Z,16.50
2022-08-01T03:03:55.394Z,16.70
2022-08-01T03:08:58.536Z,16.60
2022-08-01T03:14:03.650Z,16.60
2022-08-01T03:19:06.994Z,16.80
2022-08-01T03:24:10.889Z,17.90
2022-08-01T03:29:18.266Z,16.60
2022-08-01T03:39:29.054Z,16.40
2022-08-01T03:44:34.064Z,16.40
2022-08-01T03:49:48.259Z,16.40
2022-08-01T03:54:54.168Z,16.40
2022-08-01T03:59:58.222Z,16.00
2022-08-01T04:05:01.123Z,16.00
2022-08-01T04:10:03.570Z,16.00
2022-08-01T04:15:06.609Z,16.10
2022-08-01T04:20:08.818Z,16.00
2022-08-01T04:25:20.392Z,16.30
2022-08-01T04:30:30.859Z,16.40
2022-08-01T04:36:01.607Z,16.30
2022-08-01T04:45:59.639Z,15.80
2022-08-01T05:01:09.970Z,16.40
2022-08-01T05:06:22.768Z,16.60
2022-08-01T05:26:31.985Z,16.20
2022-08-01T05:31:35.257Z,16.70
2022-08-01T05:41:52.267Z,17.20
2022-08-01T05:46:55.063Z,17.50
2022-08-01T06:07:09.821Z,18.40
2022-08-01T06:12:11.665Z,18.80
2022-08-01T06:17:13.409Z,19.00
2022-08-01T06:22:22.324Z,19.40
2022-08-01T06:27:27.358Z,19.70
2022-08-01T06:37:33.464Z,20.50
2022-08-01T06:42:38.838Z,20.50
2022-08-01T06:47:41.820Z,20.90
2022-08-01T06:52:43.628Z,21.20
2022-08-01T06:58:03.587Z,21.90
2022-08-01T07:08:07.687Z,22.00
2022-08-01T07:18:13.917Z,22.00
2022-08-01T07:23:16.021Z,22.20
2022-08-01T07:28:20.888Z,22.20
2022-08-01T07:33:25.029Z,22.10
2022-08-01T07:48:34.770Z,22.40
2022-08-01T07:53:36.742Z,22.40
2022-08-01T07:58:38.558Z,22.50
2022-08-01T08:03:44.451Z,22.50
2022-08-01T08:08:46.188Z,22.50
2022-08-01T08:18:50.252Z,22.60
2022-08-01T08:29:14.878Z,23.00
2022-08-01T08:34:16.868Z,23.20
2022-08-01T08:39:19.694Z,23.30
2022-08-01T08:49:44.042Z,23.30
2022-08-01T08:54:47.305Z,24.40
2022-08-01T08:59:53.070Z,24.00
2022-08-01T09:04:55.326Z,24.20
2022-08-01T09:10:06.841Z,24.00
2022-08-01T09:15:08.993Z,23.90
2022-08-01T09:20:24.400Z,23.60
2022-08-01T09:25:29.555Z,24.20
2022-08-01T09:30:39.799Z,24.10
2022-08-01T09:35:48.065Z,24.50
2022-08-01T09:40:59.315Z,24.30
2022-08-01T09:46:13.072Z,24.70
2022-08-01T09:51:59.460Z,23.40
2022-08-01T09:56:51.894Z,23.90
2022-08-01T10:07:07.238Z,24.60
2022-08-01T10:12:15.807Z,25.30
2022-08-01T10:17:50.517Z,24.70
2022-08-01T10:22:54.976Z,24.70
2022-08-01T10:28:01.473Z,25.00
2022-08-01T10:33:03.628Z,24.90
2022-08-01T10:38:21.279Z,25.90
2022-08-01T10:43:26.374Z,26.10
2022-08-01T10:48:33.173Z,25.50
2022-08-01T10:58:49.516Z,25.40
2022-08-01T11:04:16.124Z,25.60
2022-08-01T11:09:36.596Z,25.70
2022-08-01T11:15:02.696Z,25.40
2022-08-01T11:20:18.520Z,25.30
2022-08-01T11:25:21.452Z,24.60
2022-08-01T11:31:26.639Z,25.30
2022-08-01T11:36:56.723Z,25.10
2022-08-01T11:41:51.710Z,25.70
2022-08-01T11:47:11.082Z,25.70
2022-08-01T11:52:34.475Z,26.00
2022-08-01T11:57:38.057Z,26.30
2022-08-01T12:02:40.839Z,26.30
2022-08-01T12:07:50.194Z,26.90
2022-08-01T12:13:02.272Z,26.30
2022-08-01T12:18:06.082Z,26.40
2022-08-01T12:23:10.222Z,26.20
2022-08-01T12:28:15.885Z,23.70
2022-08-01T12:33:26.793Z,26.90
2022-08-01T12:38:28.917Z,26.00
2022-08-01T12:43:32.877Z,25.90
2022-08-01T12:48:34.665Z,26.50
2022-08-01T12:53:41.228Z,26.50
2022-08-01T12:58:43.483Z,26.20
2022-08-01T13:04:00.031Z,21.80
2022-08-01T13:09:15.264Z,25.90
2022-08-01T13:14:29.884Z,26.00
2022-08-01T13:19:48.830Z,25.80
2022-08-01T13:25:11.134Z,26.20
2022-08-01T13:30:20.465Z,25.60
2022-08-01T13:35:22.205Z,25.50
2022-08-01T13:40:27.326Z,25.10
2022-08-01T13:45:29.163Z,25.30
2022-08-01T13:50:32.622Z,25.50
2022-08-01T13:55:42.356Z,25.00
2022-08-01T14:16:14.921Z,25.80
2022-08-01T14:21:17.561Z,26.20
2022-08-01T14:26:19.286Z,26.40
2022-08-01T14:31:34.125Z,26.10
2022-08-01T14:41:48.694Z,26.10
2022-08-01T15:02:05.574Z,24.40
2022-08-01T15:12:11.349Z,25.00
2022-08-01T15:27:17.641Z,25.00
2022-08-01T15:32:19.521Z,25.30
2022-08-01T15:37:27.574Z,26.00
2022-08-01T15:42:29.367Z,23.00
2022-08-01T15:52:33.247Z,24.90
2022-08-01T15:57:34.986Z,24.90
2022-08-01T16:02:36.801Z,25.00
2022-08-01T16:18:24.627Z,24.60
2022-08-01T16:23:27.410Z,24.80
2022-08-01T16:28:29.166Z,24.80
2022-08-01T16:33:53.879Z,24.50
2022-08-01T16:54:05.976Z,24.40
2022-08-01T16:59:27.713Z,24.30
2022-08-01T17:04:30.894Z,24.20
2022-08-01T17:09:32.749Z,24.60
2022-08-01T17:14:34.574Z,24.50
2022-08-01T17:19:36.477Z,21.90
2022-08-01T17:24:38.517Z,24.10
2022-08-01T17:29:43.518Z,24.00
2022-08-01T17:34:46.250Z,23.70
2022-08-01T17:44:52.174Z,23.30
2022-08-01T17:54:59.349Z,23.70
2022-08-01T18:00:01.153Z,23.70
2022-08-01T18:05:04.763Z,23.90
2022-08-01T18:10:11.918Z,23.80
2022-08-01T18:15:15.017Z,23.90
2022-08-01T18:20:17.069Z,23.40
2022-08-01T18:25:19.916Z,22.20
2022-08-01T18:30:32.168Z,23.40
2022-08-01T18:35:51.988Z,23.50
2022-08-01T18:40:54.740Z,23.30
2022-08-01T18:51:03.849Z,23.50
2022-08-01T18:56:14.415Z,23.40
2022-08-01T19:16:38.867Z,23.60
2022-08-01T19:22:24.156Z,23.40
2022-08-01T19:27:37.529Z,23.30
2022-08-01T19:37:47.606Z,23.20
2022-08-01T19:42:49.517Z,23.20
2022-08-01T19:47:56.455Z,23.10
2022-08-01T19:53:02.554Z,22.90
2022-08-01T20:03:31.888Z,22.70
2022-08-01T20:08:35.414Z,22.40
2022-08-01T20:13:39.344Z,22.20
2022-08-01T20:18:46.299Z,22.20
2022-08-01T20:23:50.902Z,22.10
2022-08-01T20:28:53.944Z,22.10
2022-08-01T20:33:56.512Z,22.40
2022-08-01T20:38:59.031Z,22.40
2022-08-01T20:44:00.796Z,22.10
2022-08-01T20:49:03.331Z,22.10
2022-08-01T20:54:06.864Z,21.90
2022-08-01T20:59:39.801Z,22.10
2022-08-01T21:04:48.985Z,22.00
2022-08-01T21:10:03.994Z,22.00
2022-08-01T21:15:07.018Z,21.80
2022-08-01T21:20:12.051Z,22.00
2022-08-01T21:25:22.733Z,22.20
2022-08-01T21:35:27.768Z,22.20
2022-08-01T21:40:32.416Z,22.20
2022-08-01T21:45:34.084Z,22.20
2022-08-01T21:50:45.201Z,22.10
2022-08-01T21:56:13.530Z,22.10
2022-08-01T22:01:24.165Z,22.10
2022-08-01T22:06:32.577Z,22.10
2022-08-01T22:11:37.156Z,21.80
2022-08-01T22:26:55.534Z,21.60
2022-08-01T22:32:18.288Z,21.50
2022-08-01T22:37:56.334Z,21.50
2022-08-01T22:42:46.642Z,21.50
2022-08-01T22:48:06.814Z,21.10
2022-08-01T22:53:24.232Z,21.00
2022-08-01T22:58:30.669Z,20.90
2022-08-01T23:03:40.181Z,20.90
2022-08-01T23:08:43.457Z,20.90
2022-08-01T23:13:46.888Z,21.60
2022-08-01T23:18:49.453Z,20.90
2022-08-01T23:23:51.801Z,20.50
2022-08-01T23:29:06.134Z,20.20
2022-08-01T23:34:07.940Z,20.10
2022-08-01T23:44:13.556Z,20.00
2022-08-01T23:49:15.680Z,20.00
2022-08-01T23:54:22.346Z,19.80
2022-08-01T23:59:30.101Z,20.10
